Time;durP1;ratioP1;P1;durP2;ratioP2;P2;SDS_P1;SDS_P2;PMS_P1;PMS_P2;Temp;Humidity;BMP_temperature;BMP_pressure;BME280_temperature;BME280_humidity;BME280_pressure;Samples;Min_cycle;Max_cycle;Signal;HPM_P1;HPM_P2
2023/06/28 00:00:55;;;;;;;7.35;0.88;;;16.50;99.90;;;;;;4997452;28;20090;-94
2023/06/28 00:03:21;;;;;;;3.92;1.20;;;16.50;99.90;;;;;;5006249;28;20068;-94
2023/06/28 00:05:47;;;;;;;6.32;1.27;;;16.40;99.90;;;;;;5018379;28;20054;-93
2023/06/28 00:08:13;;;;;;;2.65;0.90;;;16.40;99.90;;;;;;5021150;28;20026;-92
2023/06/28 00:10:39;;;;;;;3.95;1.17;;;16.40;99.90;;;;;;5015159;28;20033;-94
2023/06/28 00:13:04;;;;;;;2.25;0.98;;;16.30;99.90;;;;;;5016403;28;20394;-93
2023/06/28 00:15:30;;;;;;;5.13;1.00;;;16.40;99.90;;;;;;5017329;28;20045;-94
2023/06/28 00:17:55;;;;;;;3.92;0.88;;;16.40;99.90;;;;;;5015839;28;20038;-94
2023/06/28 00:20:21;;;;;;;2.28;0.82;;;16.30;99.90;;;;;;5022708;28;20034;-94
2023/06/28 00:22:47;;;;;;;3.33;0.60;;;16.30;99.90;;;;;;5017366;28;20022;-94
2023/06/28 00:25:12;;;;;;;4.25;1.00;;;16.30;99.90;;;;;;5017947;28;20080;-94
2023/06/28 00:27:38;;;;;;;6.53;1.45;;;16.30;99.90;;;;;;5030448;28;20036;-91
2023/06/28 00:30:04;;;;;;;4.65;0.80;;;16.30;99.90;;;;;;5039469;28;20014;-92
2023/06/28 00:32:30;;;;;;;4.05;0.88;;;16.30;99.90;;;;;;5032998;28;20509;-93
2023/06/28 00:34:56;;;;;;;1.95;0.70;;;16.30;99.90;;;;;;5017908;28;20021;-92
2023/06/28 00:37:21;;;;;;;5.82;1.90;;;16.30;99.90;;;;;;5017460;28;20044;-92
2023/06/28 00:39:47;;;;;;;4.28;1.05;;;16.30;99.90;;;;;;5019460;28;20057;-94
2023/06/28 00:42:13;;;;;;;4.05;0.90;;;16.30;99.90;;;;;;5020636;28;20053;-94
2023/06/28 00:44:38;;;;;;;4.20;1.00;;;16.30;99.90;;;;;;5016399;28;20478;-94
2023/06/28 00:47:05;;;;;;;2.75;0.85;;;16.30;99.90;;;;;;5020859;28;20030;-95
2023/06/28 00:49:37;;;;;;;2.17;0.70;;;16.30;99.90;;;;;;5021946;28;20550;-95
2023/06/28 00:52:03;;;;;;;4.93;0.82;;;16.30;99.90;;;;;;5020247;28;20704;-94
2023/06/28 00:54:29;;;;;;;3.00;0.95;;;16.30;99.90;;;;;;5018848;28;20157;-95
2023/06/28 00:56:55;;;;;;;3.53;1.00;;;16.30;99.90;;;;;;5019629;28;20030;-95
2023/06/28 00:59:21;;;;;;;8.10;1.08;;;16.40;99.90;;;;;;5022663;28;20048;-95
2023/06/28 01:01:51;;;;;;;5.15;0.90;;;16.40;99.90;;;;;;5026151;28;20025;-95
2023/06/28 01:04:16;;;;;;;3.47;0.60;;;16.40;99.90;;;;;;5020777;28;20166;-94
2023/06/28 01:06:51;;;;;;;3.92;0.80;;;16.40;99.90;;;;;;5005430;28;20026;-96
2023/06/28 01:09:23;;;;;;;2.05;0.50;;;16.50;99.90;;;;;;5007195;28;20034;-95
2023/06/28 01:11:50;;;;;;;1.67;0.73;;;16.40;99.90;;;;;;5008449;28;20023;-94
2023/06/28 01:14:21;;;;;;;4.80;0.90;;;16.30;99.90;;;;;;5014132;28;20458;-95
2023/06/28 01:16:49;;;;;;;4.05;0.68;;;16.30;99.90;;;;;;4991630;28;20089;-95
2023/06/28 01:19:16;;;;;;;5.80;0.95;;;16.20;99.90;;;;;;5020375;28;20030;-95
2023/06/28 01:21:45;;;;;;;3.17;1.48;;;16.10;99.90;;;;;;5017859;28;20010;-95
2023/06/28 01:24:12;;;;;;;4.93;1.08;;;16.10;99.90;;;;;;5018672;28;20042;-95
2023/06/28 01:26:39;;;;;;;4.35;1.08;;;16.00;99.90;;;;;;4989940;28;20077;-94
2023/06/28 01:29:06;;;;;;;8.57;1.20;;;16.00;99.90;;;;;;4998006;28;20081;-95
2023/06/28 01:31:32;;;;;;;2.67;0.98;;;15.90;99.90;;;;;;4979536;28;20597;-94
2023/06/28 01:33:57;;;;;;;2.28;1.25;;;15.90;99.90;;;;;;4983710;28;20027;-94
2023/06/28 01:36:23;;;;;;;3.33;1.02;;;15.80;99.90;;;;;;4982009;28;20475;-95
2023/06/28 01:38:50;;;;;;;4.63;0.85;;;15.70;99.90;;;;;;4986903;28;20046;-94
2023/06/28 01:41:16;;;;;;;5.78;1.52;;;15.70;99.90;;;;;;4981993;28;20113;-95
2023/06/28 01:43:42;;;;;;;1.83;0.75;;;15.60;99.90;;;;;;5002185;28;20057;-94
2023/06/28 01:46:08;;;;;;;3.20;0.80;;;15.60;99.90;;;;;;4981126;28;20084;-94
2023/06/28 01:48:34;;;;;;;3.40;0.80;;;15.60;99.90;;;;;;4981825;28;20073;-95
2023/06/28 01:51:00;;;;;;;4.85;1.00;;;15.60;99.90;;;;;;4980908;28;20122;-94
2023/06/28 01:53:26;;;;;;;2.70;0.70;;;15.60;99.90;;;;;;4980959;28;20031;-94
2023/06/28 01:55:51;;;;;;;3.47;0.77;;;15.60;99.90;;;;;;4979215;28;20030;-92
2023/06/28 01:58:17;;;;;;;2.38;0.80;;;15.60;99.90;;;;;;4978455;28;20076;-92
2023/06/28 02:00:43;;;;;;;2.25;0.73;;;15.50;99.90;;;;;;4979011;28;20027;-92
2023/06/28 02:03:08;;;;;;;2.15;0.57;;;15.50;99.90;;;;;;4978620;28;20475;-93
2023/06/28 02:05:34;;;;;;;;;;;15.50;99.90;;;;;;5008301;28;20081;-93
2023/06/28 02:08:01;;;;;;;3.28;0.80;;;15.50;99.90;;;;;;5021130;28;19913;-88
2023/06/28 02:10:26;;;;;;;2.92;0.90;;;15.50;99.90;;;;;;5037136;28;20041;-93
2023/06/28 02:12:52;;;;;;;4.38;0.82;;;15.50;99.90;;;;;;5016573;28;20022;-94
2023/06/28 02:15:18;;;;;;;3.83;1.00;;;15.50;99.90;;;;;;5017412;28;20030;-93
2023/06/28 02:17:44;;;;;;;6.28;1.95;;;15.60;99.90;;;;;;5014756;28;20566;-92
2023/06/28 02:20:12;;;;;;;2.70;0.73;;;15.60;99.90;;;;;;5014020;28;20058;-92
2023/06/28 02:22:39;;;;;;;6.32;0.80;;;15.60;99.90;;;;;;5015242;28;20014;-93
2023/06/28 02:25:05;;;;;;;4.10;1.10;;;15.60;99.90;;;;;;5013150;28;20449;-92
2023/06/28 02:27:31;;;;;;;2.60;0.70;;;15.70;99.90;;;;;;5015086;28;20075;-91
2023/06/28 02:29:56;;;;;;;2.60;0.95;;;15.70;99.90;;;;;;5014024;28;20469;-93
2023/06/28 02:32:22;;;;;;;3.97;0.60;;;15.70;99.90;;;;;;5016198;28;20144;-94
2023/06/28 02:34:48;;;;;;;3.38;0.90;;;15.70;99.90;;;;;;5013764;28;20026;-90
2023/06/28 02:37:14;;;;;;;12.77;1.40;;;15.70;99.90;;;;;;5014854;28;20393;-90
2023/06/28 02:39:40;;;;;;;1.92;0.55;;;15.70;99.90;;;;;;5013160;28;20661;-92
2023/06/28 02:42:06;;;;;;;7.85;1.02;;;15.70;99.90;;;;;;5013606;28;20037;-94
2023/06/28 02:44:34;;;;;;;2.70;1.02;;;15.60;99.90;;;;;;5015574;28;20033;-94
2023/06/28 02:47:00;;;;;;;1.77;0.63;;;15.60;99.90;;;;;;5022633;28;20113;-94
2023/06/28 02:49:26;;;;;;;1.45;0.60;;;15.60;99.90;;;;;;5020348;28;20050;-96
2023/06/28 02:51:51;;;;;;;3.13;0.63;;;15.60;99.90;;;;;;5013351;28;20117;-92
2023/06/28 02:54:17;;;;;;;3.03;0.73;;;15.70;99.90;;;;;;5013297;28;20026;-91
2023/06/28 02:56:43;;;;;;;3.83;0.80;;;15.70;99.90;;;;;;5013256;28;20026;-92
2023/06/28 02:59:09;;;;;;;4.03;0.80;;;15.60;99.90;;;;;;5016015;28;20038;-93
2023/06/28 03:01:34;;;;;;;1.65;0.65;;;15.70;99.90;;;;;;5021191;28;20082;-94
2023/06/28 03:04:00;;;;;;;3.08;0.80;;;15.70;99.90;;;;;;5010345;28;20054;-94
2023/06/28 03:06:26;;;;;;;3.92;0.75;;;15.60;99.90;;;;;;4995491;28;20058;-91
2023/06/28 03:08:51;;;;;;;2.88;0.85;;;15.70;99.90;;;;;;4997745;28;20109;-92
2023/06/28 03:11:17;;;;;;;4.45;0.70;;;15.70;99.90;;;;;;4982782;28;20022;-93
2023/06/28 03:13:43;;;;;;;2.97;0.60;;;15.70;99.90;;;;;;4984580;28;20030;-94
2023/06/28 03:16:08;;;;;;;2.45;0.68;;;15.70;99.90;;;;;;4997879;28;20034;-94
2023/06/28 03:18:36;;;;;;;2.22;0.55;;;15.70;99.90;;;;;;4994472;28;20034;-90
2023/06/28 03:21:02;;;;;;;3.20;0.90;;;15.70;99.90;;;;;;4976839;28;20037;-92
2023/06/28 03:23:27;;;;;;;4.13;0.90;;;15.70;99.90;;;;;;4979598;28;20034;-94
2023/06/28 03:25:53;;;;;;;3.63;0.60;;;15.80;99.90;;;;;;4999106;28;20042;-93
2023/06/28 03:28:19;;;;;;;5.65;0.70;;;15.80;99.90;;;;;;4979941;28;20026;-94
2023/06/28 03:30:45;;;;;;;4.95;1.17;;;15.80;99.90;;;;;;4999615;28;20057;-92
2023/06/28 03:33:12;;;;;;;4.03;0.73;;;15.80;99.90;;;;;;4976914;28;20104;-91
2023/06/28 03:35:37;;;;;;;5.35;0.77;;;15.90;99.90;;;;;;4994354;28;20026;-91
2023/06/28 03:38:03;;;;;;;4.13;0.95;;;15.90;99.90;;;;;;4977058;28;20034;-90
2023/06/28 03:40:29;;;;;;;9.23;1.20;;;16.00;99.90;;;;;;4995622;28;20031;-91
2023/06/28 03:42:55;;;;;;;3.22;0.80;;;16.10;99.90;;;;;;4977362;28;20033;-91
2023/06/28 03:45:20;;;;;;;4.65;1.77;;;16.20;99.90;;;;;;4994632;28;20030;-91
2023/06/28 03:47:47;;;;;;;2.83;0.73;;;16.20;99.90;;;;;;4994194;28;20068;-91
2023/06/28 03:50:13;;;;;;;3.97;0.63;;;16.30;99.90;;;;;;4994078;28;20479;-91
2023/06/28 03:52:39;;;;;;;4.20;0.73;;;16.30;99.90;;;;;;4993974;28;20022;-91
2023/06/28 03:55:06;;;;;;;1.85;0.80;;;16.30;99.90;;;;;;4976647;28;20076;-91
2023/06/28 03:57:32;;;;;;;2.63;1.13;;;16.30;99.90;;;;;;4994984;28;20077;-91
2023/06/28 03:59:58;;;;;;;2.05;0.60;;;16.30;99.90;;;;;;5010964;28;20062;-90
2023/06/28 04:02:24;;;;;;;3.33;0.60;;;16.40;99.90;;;;;;4999533;28;20011;-91
2023/06/28 04:04:50;;;;;;;2.67;0.60;;;16.40;99.90;;;;;;5005169;28;20549;-91
2023/06/28 04:07:15;;;;;;;1.80;0.40;;;16.40;99.90;;;;;;5015095;28;20079;-91
2023/06/28 04:09:42;;;;;;;3.38;0.60;;;16.40;99.90;;;;;;5014167;28;20112;-91
2023/06/28 04:12:08;;;;;;;1.67;0.60;;;16.50;99.90;;;;;;5012597;28;20026;-91
2023/06/28 04:14:34;;;;;;;2.92;0.50;;;16.60;99.90;;;;;;5012658;28;20160;-91
2023/06/28 04:17:00;;;;;;;11.27;0.85;;;16.60;99.20;;;;;;5012380;28;20073;-91
2023/06/28 04:19:25;;;;;;;1.70;0.50;;;16.70;96.80;;;;;;5011657;28;20418;-90
2023/06/28 04:21:51;;;;;;;2.05;0.60;;;16.80;95.60;;;;;;5030231;28;20038;-92
2023/06/28 04:24:17;;;;;;;3.35;0.50;;;17.00;94.20;;;;;;5022178;28;20025;-91
2023/06/28 04:26:42;;;;;;;4.82;0.55;;;17.10;93.70;;;;;;5012634;28;20445;-91
2023/06/28 04:29:08;;;;;;;2.42;0.98;;;17.30;92.30;;;;;;5012387;28;20033;-90
2023/06/28 04:31:34;;;;;;;4.72;0.55;;;17.30;91.20;;;;;;5012490;28;20025;-91
2023/06/28 04:34:00;;;;;;;1.77;0.40;;;17.40;90.70;;;;;;5011950;28;20140;-91
2023/06/28 04:36:26;;;;;;;2.92;0.55;;;17.50;90.30;;;;;;5012632;28;20026;-92
2023/06/28 04:38:54;;;;;;;4.15;0.77;;;17.60;89.60;;;;;;5015078;28;20033;-92
2023/06/28 04:41:25;;;;;;;1.48;0.43;;;17.70;87.40;;;;;;5011865;28;20127;-92
2023/06/28 04:43:55;;;;;;;2.25;0.70;;;17.70;86.90;;;;;;5011811;28;20502;-92
2023/06/28 04:46:27;;;;;;;1.13;0.40;;;17.80;87.20;;;;;;5011892;28;20037;-92
2023/06/28 04:48:53;;;;;;;5.65;0.30;;;17.90;87.00;;;;;;5011238;28;20391;-90
2023/06/28 04:51:20;;;;;;;1.00;0.40;;;18.00;86.40;;;;;;5011846;28;20033;-93
2023/06/28 04:53:49;;;;;;;0.93;0.32;;;18.20;86.20;;;;;;5012002;28;20014;-92
2023/06/28 04:56:15;;;;;;;2.85;0.50;;;18.30;87.10;;;;;;5012090;28;20033;-93
2023/06/28 04:58:41;;;;;;;2.97;0.85;;;18.30;87.40;;;;;;5011864;28;20091;-93
2023/06/28 05:01:08;;;;;;;7.25;0.80;;;18.40;87.80;;;;;;5011887;28;20113;-89
2023/06/28 05:03:40;;;;;;;6.63;0.40;;;18.50;86.90;;;;;;5011818;28;20474;-90
2023/06/28 05:06:09;;;;;;;9.05;0.47;;;18.60;84.50;;;;;;4979301;28;20038;-89
2023/06/28 05:08:35;;;;;;;2.80;0.60;;;18.70;83.10;;;;;;4979605;28;20030;-89
2023/06/28 05:11:01;;;;;;;1.33;0.50;;;18.80;82.10;;;;;;5004802;28;20077;-90
2023/06/28 05:13:27;;;;;;;4.57;0.68;;;18.90;79.80;;;;;;4997096;28;20038;-91
2023/06/28 05:15:53;;;;;;;4.32;0.80;;;19.00;80.40;;;;;;4979576;28;20530;-91
2023/06/28 05:18:19;;;;;;;4.65;1.02;;;19.20;81.20;;;;;;4979241;28;20086;-91
2023/06/28 05:20:45;;;;;;;1.25;0.50;;;19.20;80.40;;;;;;4979526;28;20487;-91
2023/06/28 05:23:16;;;;;;;2.60;0.80;;;19.40;80.40;;;;;;4979380;28;20037;-90
2023/06/28 05:25:42;;;;;;;3.88;0.57;;;19.50;78.30;;;;;;4995311;28;20561;-91
2023/06/28 05:28:09;;;;;;;1.92;0.45;;;19.60;76.30;;;;;;4995424;28;20479;-91
2023/06/28 05:30:35;;;;;;;3.00;0.60;;;19.60;75.70;;;;;;4978944;28;20034;-91
2023/06/28 05:33:02;;;;;;;3.97;0.45;;;19.60;77.00;;;;;;4979167;28;20045;-91
2023/06/28 05:35:35;;;;;;;4.38;0.73;;;19.80;77.60;;;;;;4996747;28;20023;-91
2023/06/28 05:38:05;;;;;;;7.25;1.08;;;20.10;74.80;;;;;;4979367;28;20116;-90
2023/06/28 05:40:34;;;;;;;5.47;1.13;;;20.30;75.00;;;;;;4978931;28;20525;-91
2023/06/28 05:42:59;;;;;;;2.55;0.45;;;20.60;74.20;;;;;;4978788;28;20033;-90
2023/06/28 05:45:26;;;;;;;3.45;0.65;;;20.80;70.80;;;;;;4978790;28;20109;-90
2023/06/28 05:47:52;;;;;;;3.30;0.65;;;21.00;70.60;;;;;;4978696;28;20030;-90
2023/06/28 05:50:20;;;;;;;1.77;0.50;;;21.10;68.30;;;;;;4978597;28;20033;-90
2023/06/28 05:52:46;;;;;;;2.58;0.70;;;21.10;68.70;;;;;;4979098;28;20026;-90
2023/06/28 05:55:12;;;;;;;3.63;0.98;;;21.40;69.30;;;;;;4978840;28;20513;-89
2023/06/28 05:57:39;;;;;;;6.60;1.38;;;21.70;66.00;;;;;;4978794;28;20022;-89
2023/06/28 06:00:06;;;;;;;3.03;0.80;;;21.80;65.90;;;;;;4978568;28;20097;-91
2023/06/28 06:02:32;;;;;;;3.25;0.50;;;22.20;64.80;;;;;;4978405;28;20117;-90
2023/06/28 06:04:59;;;;;;;4.30;1.20;;;22.90;61.70;;;;;;4998146;28;20053;-91
2023/06/28 06:07:25;;;;;;;2.72;0.52;;;23.50;60.10;;;;;;5015306;28;20072;-91
2023/06/28 06:09:51;;;;;;;6.00;0.90;;;24.40;54.40;;;;;;5014646;28;20022;-90
2023/06/28 06:12:18;;;;;;;3.97;0.55;;;25.00;54.80;;;;;;5015300;28;20030;-89
2023/06/28 06:14:44;;;;;;;3.70;1.10;;;25.60;53.40;;;;;;5013932;28;20033;-91
2023/06/28 06:17:09;;;;;;;4.05;0.90;;;26.40;51.60;;;;;;5014096;28;20034;-91
2023/06/28 06:19:35;;;;;;;3.92;1.02;;;27.20;50.50;;;;;;5015091;28;20486;-90
2023/06/28 06:22:01;;;;;;;3.40;0.50;;;27.90;49.20;;;;;;5015032;28;20401;-90
2023/06/28 06:24:26;;;;;;;6.13;0.82;;;28.60;46.30;;;;;;5013842;28;20026;-91
2023/06/28 06:26:52;;;;;;;3.20;0.70;;;29.20;44.40;;;;;;5014422;28;20032;-89
2023/06/28 06:29:18;;;;;;;2.40;0.60;;;30.10;43.90;;;;;;5013837;28;20022;-90
2023/06/28 06:31:43;;;;;;;1.52;0.60;;;30.50;42.20;;;;;;5015924;28;20034;-88
2023/06/28 06:34:09;;;;;;;2.85;0.63;;;30.50;41.70;;;;;;5031860;28;20041;-89
2023/06/28 06:36:36;;;;;;;9.25;1.27;;;30.30;41.80;;;;;;5015711;28;20026;-90
2023/06/28 06:39:02;;;;;;;2.38;0.50;;;29.60;42.00;;;;;;5013587;28;20038;-90
2023/06/28 06:41:27;;;;;;;1.92;0.55;;;29.10;41.70;;;;;;5013922;28;20029;-90
2023/06/28 06:43:53;;;;;;;1.85;0.50;;;28.30;43.30;;;;;;5013582;28;20477;-88
2023/06/28 06:46:20;;;;;;;1.45;0.60;;;27.70;43.40;;;;;;5013431;28;20164;-89
2023/06/28 06:48:47;;;;;;;3.00;0.80;;;26.70;43.70;;;;;;5013531;28;20061;-90
2023/06/28 06:51:13;;;;;;;1.83;0.68;;;26.10;44.70;;;;;;5013218;28;20029;-90
2023/06/28 06:53:38;;;;;;;2.67;0.70;;;25.40;45.10;;;;;;5013304;28;20038;-90
2023/06/28 06:56:04;;;;;;;3.60;0.77;;;24.90;46.40;;;;;;5013234;28;20029;-89
2023/06/28 06:58:30;;;;;;;2.97;0.90;;;24.70;47.90;;;;;;5012828;28;20499;-91
2023/06/28 07:00:56;;;;;;;5.07;0.60;;;24.60;48.70;;;;;;5012888;28;20026;-89
2023/06/28 07:03:22;;;;;;;2.67;1.00;;;24.70;49.00;;;;;;5014571;28;20036;-89
2023/06/28 07:05:48;;;;;;;3.55;0.73;;;24.70;48.00;;;;;;5013323;28;20219;-90
2023/06/28 07:08:13;;;;;;;2.40;0.80;;;24.40;49.00;;;;;;5014644;28;20045;-89
2023/06/28 07:10:39;;;;;;;2.28;0.80;;;24.20;49.10;;;;;;5014808;28;20463;-88
2023/06/28 07:13:05;;;;;;;1.85;0.70;;;24.10;50.30;;;;;;5017006;28;20747;-89
2023/06/28 07:15:30;;;;;;;1.42;0.60;;;24.20;50.50;;;;;;5014339;28;20046;-91
2023/06/28 07:17:56;;;;;;;4.32;1.00;;;24.20;50.70;;;;;;5013411;28;20025;-90
2023/06/28 07:20:22;;;;;;;3.05;0.60;;;24.20;49.60;;;;;;5013956;28;20521;-92
2023/06/28 07:22:48;;;;;;;4.10;0.60;;;24.20;50.50;;;;;;5014200;28;20046;-91
2023/06/28 07:25:13;;;;;;;2.80;0.50;;;24.20;49.40;;;;;;5021825;28;20022;-90
2023/06/28 07:27:39;;;;;;;3.05;0.70;;;24.30;49.10;;;;;;5033139;28;20042;-90
2023/06/28 07:30:07;;;;;;;2.65;0.77;;;24.20;49.70;;;;;;5032985;28;20034;-90
2023/06/28 07:32:33;;;;;;;2.47;0.50;;;24.10;49.30;;;;;;5023401;28;20126;-90
2023/06/28 07:34:59;;;;;;;4.05;0.63;;;23.80;50.10;;;;;;5021049;28;20041;-90
2023/06/28 07:37:25;;;;;;;6.80;1.00;;;23.60;50.80;;;;;;5012228;28;20022;-90
2023/06/28 07:39:51;;;;;;;3.28;0.73;;;23.50;49.50;;;;;;5013451;28;20117;-90
2023/06/28 07:42:17;;;;;;;5.65;0.93;;;23.40;51.10;;;;;;5012537;28;20037;-91
2023/06/28 07:44:43;;;;;;;5.13;0.90;;;23.50;52.60;;;;;;5014662;28;20033;-89
2023/06/28 07:47:09;;;;;;;2.58;0.65;;;23.80;53.40;;;;;;5012180;28;20021;-89
2023/06/28 07:49:34;;;;;;;4.15;0.88;;;23.90;52.50;;;;;;5011980;28;20509;-91
2023/06/28 07:52:00;;;;;;;4.40;0.73;;;24.10;51.40;;;;;;5012125;28;20042;-89
2023/06/28 07:54:26;;;;;;;1.63;0.50;;;24.30;51.30;;;;;;5011173;28;20092;-89
2023/06/28 07:56:52;;;;;;;0.95;0.50;;;24.40;49.60;;;;;;5012084;28;20022;-90
2023/06/28 07:59:19;;;;;;;1.60;0.63;;;24.60;50.20;;;;;;5011687;28;20792;-89
2023/06/28 08:01:46;;;;;;;2.67;0.60;;;24.90;51.20;;;;;;5012174;28;20049;-90
2023/06/28 08:04:12;;;;;;;3.67;0.60;;;25.30;49.20;;;;;;5011825;28;20108;-87
2023/06/28 08:06:37;;;;;;;1.75;0.40;;;25.80;49.70;;;;;;5010324;28;20444;-90
2023/06/28 08:09:03;;;;;;;0.98;0.40;;;26.30;47.20;;;;;;5011234;28;20088;-89
2023/06/28 08:11:29;;;;;;;4.18;0.93;;;26.50;47.50;;;;;;5011022;28;20075;-90
2023/06/28 08:13:55;;;;;;;2.95;0.60;;;26.60;48.30;;;;;;5010519;28;20048;-90
2023/06/28 08:16:21;;;;;;;4.07;0.57;;;26.50;46.50;;;;;;5011496;28;20096;-90
2023/06/28 08:18:47;;;;;;;2.22;0.70;;;26.50;46.70;;;;;;5010822;28;20492;-88
2023/06/28 08:21:13;;;;;;;1.60;0.70;;;26.60;47.70;;;;;;5010615;28;20022;-88
2023/06/28 08:23:39;;;;;;;4.13;0.63;;;26.60;46.30;;;;;;5011941;28;20087;-91
2023/06/28 08:26:05;;;;;;;3.50;0.63;;;26.50;46.60;;;;;;5011016;28;20116;-90
2023/06/28 08:28:31;;;;;;;1.33;0.55;;;26.70;47.50;;;;;;5012324;28;20036;-92
2023/06/28 08:30:57;;;;;;;2.28;0.60;;;27.10;44.80;;;;;;5012272;28;20033;-89
2023/06/28 08:33:24;;;;;;;1.17;0.45;;;27.20;44.60;;;;;;5010582;28;20493;-90
2023/06/28 08:35:50;;;;;;;1.73;0.50;;;27.30;44.50;;;;;;5010799;28;20022;-90
2023/06/28 08:38:16;;;;;;;3.70;0.65;;;27.50;45.00;;;;;;5011712;28;20069;-89
2023/06/28 08:40:42;;;;;;;2.75;0.63;;;27.50;45.90;;;;;;5013632;28;20064;-91
2023/06/28 08:43:10;;;;;;;3.75;0.75;;;27.40;48.40;;;;;;5017083;28;20303;-89
2023/06/28 08:45:36;;;;;;;5.18;1.10;;;27.50;47.70;;;;;;5033270;28;20471;-89
2023/06/28 08:48:03;;;;;;;2.30;0.60;;;27.70;47.90;;;;;;5020598;28;20014;-88
2023/06/28 08:50:30;;;;;;;3.13;0.77;;;28.10;47.60;;;;;;5014357;28;20402;-88
2023/06/28 08:52:57;;;;;;;1.42;0.80;;;28.30;47.10;;;;;;5014393;28;20406;-90
2023/06/28 08:55:23;;;;;;;4.20;0.82;;;28.50;46.70;;;;;;5015373;28;20057;-91
2023/06/28 08:57:49;;;;;;;1.65;0.63;;;28.60;46.50;;;;;;5014365;28;20057;-91
2023/06/28 09:00:15;;;;;;;14.00;0.90;;;28.50;45.70;;;;;;5014145;28;20475;-90
2023/06/28 09:02:42;;;;;;;4.95;0.82;;;28.20;46.20;;;;;;5014256;28;20506;-90
2023/06/28 09:05:10;;;;;;;2.50;0.85;;;28.10;44.60;;;;;;5002621;28;20077;-89
2023/06/28 09:07:39;;;;;;;2.55;0.77;;;28.00;44.80;;;;;;4978846;28;20034;-91
2023/06/28 09:10:07;;;;;;;5.93;1.20;;;27.70;45.10;;;;;;4995696;28;20126;-88
2023/06/28 09:12:34;;;;;;;5.15;0.90;;;27.40;44.40;;;;;;4978346;28;20164;-90
2023/06/28 09:15:00;;;;;;;6.28;0.70;;;27.00;45.80;;;;;;4978154;28;20026;-89
2023/06/28 09:17:25;;;;;;;6.38;0.60;;;26.70;46.30;;;;;;4985848;28;20030;-92
2023/06/28 09:19:52;;;;;;;2.45;0.85;;;26.40;47.90;;;;;;4979070;28;20042;-92
2023/06/28 09:22:18;;;;;;;2.22;0.77;;;26.10;49.00;;;;;;4978562;28;20026;-91
2023/06/28 09:24:49;;;;;;;1.80;1.00;;;26.00;49.80;;;;;;4979903;28;20041;-91
2023/06/28 09:27:15;;;;;;;2.30;0.75;;;25.80;50.40;;;;;;4978237;28;20057;-91
2023/06/28 09:29:41;;;;;;;4.05;0.52;;;25.70;51.00;;;;;;4983250;28;20096;-90
2023/06/28 09:32:07;;;;;;;2.15;1.05;;;25.60;51.10;;;;;;4978334;28;20030;-90
2023/06/28 09:34:37;;;;;;;1.67;0.70;;;25.50;52.10;;;;;;4995959;28;20034;-90
2023/06/28 09:37:05;;;;;;;8.68;0.68;;;25.50;52.50;;;;;;4978111;28;20035;-92
2023/06/28 09:39:36;;;;;;;8.20;0.90;;;25.70;52.70;;;;;;4977778;28;20050;-90
2023/06/28 09:42:03;;;;;;;3.00;0.70;;;26.50;51.30;;;;;;4977553;28;20442;-90
2023/06/28 09:44:31;;;;;;;3.20;0.70;;;27.20;50.00;;;;;;4977765;28;20113;-89
2023/06/28 09:47:03;;;;;;;6.93;1.05;;;27.90;48.50;;;;;;4976938;28;20049;-88
2023/06/28 09:49:28;;;;;;;2.60;0.75;;;28.70;47.70;;;;;;4977605;28;20062;-89
2023/06/28 09:52:00;;;;;;;2.83;0.60;;;28.70;47.50;;;;;;4994253;28;20061;-90
2023/06/28 09:54:32;;;;;;;2.50;0.60;;;29.10;48.00;;;;;;4995114;28;20033;-90
2023/06/28 09:57:00;;;;;;;2.70;0.77;;;29.70;46.10;;;;;;4977767;28;20022;-88
2023/06/28 09:59:33;;;;;;;1.70;0.77;;;30.20;44.60;;;;;;4977766;28;20136;-90
2023/06/28 10:01:59;;;;;;;2.58;0.88;;;30.20;45.10;;;;;;4994669;28;20056;-91
2023/06/28 10:04:31;;;;;;;3.67;0.73;;;30.10;45.50;;;;;;4994749;28;20419;-88
2023/06/28 10:07:02;;;;;;;1.90;1.00;;;29.60;44.50;;;;;;4977363;28;20510;-89
2023/06/28 10:09:41;;;;;;;3.80;0.50;;;28.70;45.60;;;;;;4977276;28;20174;-89
2023/06/28 10:12:18;;;;;;;1.48;0.43;;;27.80;46.20;;;;;;4976885;28;20486;-90
2023/06/28 10:14:58;;;;;;;1.80;0.80;;;27.00;46.20;;;;;;4977282;28;20161;-90
2023/06/28 10:17:25;;;;;;;1.65;0.50;;;26.40;49.10;;;;;;4994356;28;20022;-90
2023/06/28 10:19:53;;;;;;;6.95;0.60;;;26.30;50.20;;;;;;4977223;28;20549;-90
2023/06/28 10:22:19;;;;;;;2.38;0.50;;;26.30;51.50;;;;;;4977043;28;20034;-89
2023/06/28 10:24:46;;;;;;;7.10;2.53;;;26.20;50.80;;;;;;4977207;28;20038;-89
2023/06/28 10:27:13;;;;;;;1.70;0.50;;;26.10;49.70;;;;;;4977175;28;20054;-89
2023/06/28 10:29:41;;;;;;;2.20;0.60;;;26.10;49.70;;;;;;4994218;28;20030;-90
2023/06/28 10:32:07;;;;;;;1.65;0.50;;;26.20;49.80;;;;;;4994354;28;20060;-91
2023/06/28 10:34:35;;;;;;;2.75;0.60;;;26.30;48.40;;;;;;4993815;28;20029;-89
2023/06/28 10:37:01;;;;;;;3.00;0.80;;;26.40;48.70;;;;;;4977546;28;20026;-90
2023/06/28 10:39:26;;;;;;;1.42;0.50;;;26.50;48.40;;;;;;4977457;28;20038;-89
2023/06/28 10:41:56;;;;;;;2.50;0.50;;;26.40;48.00;;;;;;4977828;28;20483;-88
2023/06/28 10:44:22;;;;;;;2.17;0.50;;;26.00;47.40;;;;;;4976574;28;20039;-90
2023/06/28 10:47:07;;;;;;;1.83;0.38;;;25.60;48.90;;;;;;4977642;28;20384;-89
2023/06/28 10:49:36;;;;;;;3.70;0.90;;;25.40;50.30;;;;;;4978142;28;20029;-90
2023/06/28 10:52:02;;;;;;;1.70;0.60;;;25.30;49.00;;;;;;4990087;28;20034;-87
2023/06/28 10:54:27;;;;;;;2.45;0.50;;;25.40;50.10;;;;;;4999470;28;20014;-88
2023/06/28 10:56:58;;;;;;;2.58;0.50;;;25.60;49.60;;;;;;4998561;28;20038;-89
2023/06/28 10:59:26;;;;;;;3.10;0.77;;;25.80;48.80;;;;;;4986301;28;20125;-88
2023/06/28 11:01:54;;;;;;;1.50;0.50;;;25.80;48.70;;;;;;4979458;28;20022;-90
2023/06/28 11:04:25;;;;;;;2.42;0.50;;;25.90;48.30;;;;;;4985208;28;20045;-90
2023/06/28 11:07:03;;;;;;;9.50;0.57;;;25.70;47.40;;;;;;5012795;28;20140;-89
2023/06/28 11:09:29;;;;;;;1.40;0.30;;;25.50;48.10;;;;;;5013682;28;20030;-89
2023/06/28 11:11:57;;;;;;;3.00;0.60;;;25.30;49.50;;;;;;5011919;28;20076;-90
2023/06/28 11:14:27;;;;;;;2.75;0.50;;;25.30;50.50;;;;;;5011967;28;20040;-87
2023/06/28 11:17:11;;;;;;;1.70;0.52;;;25.20;50.00;;;;;;5011153;28;20088;-89
2023/06/28 11:19:39;;;;;;;2.05;0.55;;;25.00;48.20;;;;;;5011487;28;20041;-88
2023/06/28 11:22:05;;;;;;;2.65;0.50;;;24.90;48.70;;;;;;5018271;28;20030;-87
2023/06/28 11:24:36;;;;;;;1.60;0.55;;;25.00;50.00;;;;;;5017262;28;20072;-88
2023/06/28 11:27:03;;;;;;;6.90;0.60;;;25.10;49.40;;;;;;5013653;28;20036;-89
2023/06/28 11:29:28;;;;;;;1.77;0.68;;;25.20;48.20;;;;;;5013044;28;20030;-91
2023/06/28 11:31:58;;;;;;;1.83;0.70;;;25.30;47.90;;;;;;5011447;28;20355;-90
2023/06/28 11:34:25;;;;;;;6.38;0.80;;;25.30;49.00;;;;;;5011377;28;20094;-90
2023/06/28 11:36:52;;;;;;;3.05;0.47;;;25.40;49.30;;;;;;5010620;28;20026;-88
2023/06/28 11:39:22;;;;;;;2.08;0.60;;;25.40;47.10;;;;;;5011071;28;20041;-86
2023/06/28 11:41:48;;;;;;;3.53;0.70;;;25.40;48.00;;;;;;5011091;28;20057;-89
2023/06/28 11:44:14;;;;;;;1.88;0.43;;;25.50;48.80;;;;;;5011127;28;20057;-89
2023/06/28 11:46:41;;;;;;;1.50;0.50;;;25.60;49.60;;;;;;5010899;28;20026;-87
2023/06/28 11:49:08;;;;;;;2.53;0.50;;;25.70;48.40;;;;;;5011620;28;20512;-88
2023/06/28 11:51:35;;;;;;;2.92;0.50;;;25.70;48.10;;;;;;5010544;28;20022;-86
2023/06/28 11:54:04;;;;;;;3.38;0.55;;;25.60;48.30;;;;;;5010365;28;20022;-90
2023/06/28 11:56:49;;;;;;;13.02;0.90;;;25.70;46.70;;;;;;5011465;28;20026;-88
2023/06/28 11:59:17;;;;;;;2.65;0.50;;;25.60;47.30;;;;;;5011072;28;20065;-88
2023/06/28 12:01:44;;;;;;;3.22;0.43;;;25.60;47.70;;;;;;5010801;28;20153;-89
2023/06/28 12:04:17;;;;;;;2.35;0.50;;;25.60;46.30;;;;;;5011077;28;20050;-88
2023/06/28 12:06:43;;;;;;;6.25;0.55;;;25.50;47.50;;;;;;5011579;28;20064;-88
2023/06/28 12:09:24;;;;;;;1.15;0.50;;;25.60;46.50;;;;;;5013106;28;20026;-89
2023/06/28 12:12:02;;;;;;;3.05;0.60;;;25.60;46.00;;;;;;5011902;28;20018;-89
2023/06/28 12:14:29;;;;;;;3.53;0.80;;;25.50;45.70;;;;;;5012876;28;20423;-89
2023/06/28 12:16:55;;;;;;;3.25;0.40;;;25.40;46.50;;;;;;5016076;28;20513;-88
2023/06/28 12:19:33;;;;;;;2.90;0.50;;;25.40;44.90;;;;;;5018878;28;20666;-90
2023/06/28 12:22:01;;;;;;;1.17;0.38;;;25.30;45.20;;;;;;5017640;28;20026;-89
2023/06/28 12:24:26;;;;;;;2.08;0.60;;;25.40;45.60;;;;;;5017939;28;20029;-90
2023/06/28 12:26:54;;;;;;;3.15;0.50;;;25.40;45.60;;;;;;5017762;28;20040;-89
2023/06/28 12:29:25;;;;;;;0.95;0.40;;;25.40;44.80;;;;;;5016380;28;20498;-90
2023/06/28 12:31:52;;;;;;;1.73;0.50;;;25.50;43.20;;;;;;5016479;28;20025;-91
2023/06/28 12:34:31;;;;;;;2.00;0.70;;;25.40;44.10;;;;;;5001755;28;20037;-90
2023/06/28 12:37:00;;;;;;;1.02;0.40;;;25.30;44.20;;;;;;5018880;28;20501;-91
2023/06/28 12:39:27;;;;;;;4.97;0.55;;;25.10;44.10;;;;;;5017430;28;20042;-90
2023/06/28 12:42:09;;;;;;;1.58;0.40;;;24.90;45.60;;;;;;5016826;28;20153;-90
2023/06/28 12:44:50;;;;;;;2.33;0.55;;;24.90;46.40;;;;;;5017493;28;20030;-89
2023/06/28 12:47:17;;;;;;;0.68;0.32;;;24.90;47.50;;;;;;5016794;28;20030;-87